Time;durP1;ratioP1;P1;durP2;ratioP2;P2;SDS_P1;SDS_P2;PMS_P1;PMS_P2;Temp;Humidity;BMP_temperature;BMP_pressure;BME280_temperature;BME280_humidity;BME280_pressure;Samples;Min_cycle;Max_cycle;Signal;HPM_P1;HPM_P2
2021/03/04 00:00:44;;;;;;;26.70;17.10;;;;;;;7.39;86.64;98904.16;5076930;28;20574;-68
2021/03/04 00:03:10;;;;;;;25.40;16.57;;;;;;;7.37;86.19;98900.75;5074967;28;20206;-70
2021/03/04 00:05:37;;;;;;;27.10;16.00;;;;;;;7.38;85.71;98899.00;5076941;28;20207;-69
2021/03/04 00:08:03;;;;;;;25.80;17.03;;;;;;;7.40;86.39;98890.09;5076771;28;20234;-69
2021/03/04 00:10:31;;;;;;;26.83;17.87;;;;;;;7.39;86.02;98883.13;5076642;28;20217;-69
2021/03/04 00:12:57;;;;;;;26.53;16.97;;;;;;;7.41;86.44;98882.16;5076416;28;20291;-69
2021/03/04 00:15:26;;;;;;;22.47;15.43;;;;;;;7.41;86.27;98870.78;5076844;28;20233;-69
2021/03/04 00:17:53;;;;;;;25.60;17.10;;;;;;;7.35;85.85;98866.63;5076711;28;20210;-69
2021/03/04 00:20:20;;;;;;;23.30;16.50;;;;;;;7.38;86.58;98870.91;5076728;28;20207;-68
2021/03/04 00:22:47;;;;;;;24.80;16.27;;;;;;;7.33;86.63;98857.09;5076398;28;20691;-69
2021/03/04 00:25:14;;;;;;;25.87;16.63;;;;;;;7.24;86.79;98853.13;5076549;28;20221;-69
2021/03/04 00:27:41;;;;;;;27.73;16.07;;;;;;;7.20;87.57;98857.75;5076233;28;20234;-69
2021/03/04 00:30:09;;;;;;;23.37;15.90;;;;;;;7.14;88.14;98858.03;5074927;28;20675;-69
2021/03/04 00:32:36;;;;;;;27.67;17.03;;;;;;;7.10;88.53;98859.06;5076334;28;20266;-70
2021/03/04 00:35:02;;;;;;;25.70;17.83;;;;;;;7.06;90.10;98868.84;5075968;28;20210;-65
2021/03/04 00:37:28;;;;;;;24.30;17.33;;;;;;;7.05;90.32;98867.16;5076097;28;20214;-67
2021/03/04 00:39:54;;;;;;;26.73;16.77;;;;;;;7.04;90.61;98873.34;5076101;28;20574;-69
2021/03/04 00:42:20;;;;;;;23.77;16.90;;;;;;;7.04;90.63;98861.97;5076129;28;20576;-65
2021/03/04 00:44:47;;;;;;;24.53;17.43;;;;;;;7.01;90.12;98860.31;5075827;28;20686;-68
2021/03/04 00:47:13;;;;;;;28.17;17.67;;;;;;;6.97;91.52;98863.16;5076167;28;20239;-70
2021/03/04 00:49:39;;;;;;;32.20;18.47;;;;;;;6.94;91.69;98860.63;5076146;28;20221;-69
2021/03/04 00:52:06;;;;;;;24.03;16.30;;;;;;;6.94;91.37;98858.88;5075948;28;20218;-67
2021/03/04 00:54:32;;;;;;;25.57;16.33;;;;;;;6.90;92.72;98856.44;5074475;28;20214;-69
2021/03/04 00:56:58;;;;;;;26.30;16.90;;;;;;;6.89;91.71;98860.84;5076107;28;20211;-68
2021/03/04 00:59:24;;;;;;;25.37;16.87;;;;;;;6.88;92.21;98860.91;5075926;28;20213;-67
2021/03/04 01:01:51;;;;;;;26.03;16.90;;;;;;;6.89;91.95;98855.59;5075940;28;20221;-66
2021/03/04 01:04:17;;;;;;;29.90;18.17;;;;;;;6.89;91.73;98852.13;5075990;28;20591;-67
2021/03/04 01:06:43;;;;;;;26.60;17.03;;;;;;;6.87;92.00;98854.81;5075670;28;20218;-69
2021/03/04 01:09:09;;;;;;;23.50;16.37;;;;;;;6.86;92.77;98854.88;5075272;28;20278;-67
2021/03/04 01:11:35;;;;;;;26.10;16.73;;;;;;;6.83;92.09;98850.59;5075325;28;20214;-66
2021/03/04 01:14:02;;;;;;;27.43;17.50;;;;;;;6.79;92.96;98843.75;5075584;28;20236;-69
2021/03/04 01:16:27;;;;;;;25.60;16.47;;;;;;;6.76;92.56;98835.16;5075558;28;20237;-68
2021/03/04 01:18:54;;;;;;;27.20;17.17;;;;;;;6.73;93.36;98838.75;5075544;28;20224;-72
2021/03/04 01:21:21;;;;;;;25.07;16.90;;;;;;;6.71;93.09;98834.53;5073654;28;20785;-68
2021/03/04 01:23:47;;;;;;;30.03;18.33;;;;;;;6.72;93.05;98834.44;5075556;28;20215;-69
2021/03/04 01:26:13;;;;;;;26.73;17.27;;;;;;;6.72;93.64;98825.72;5075401;28;20209;-69
2021/03/04 01:28:39;;;;;;;26.63;17.00;;;;;;;6.70;93.07;98823.16;5075428;28;20229;-65
2021/03/04 01:31:05;;;;;;;25.93;16.97;;;;;;;6.70;93.37;98823.16;5075453;28;20213;-70
2021/03/04 01:33:31;;;;;;;25.63;17.10;;;;;;;6.69;93.71;98816.19;5075037;28;20215;-66
2021/03/04 01:35:58;;;;;;;27.47;17.97;;;;;;;6.66;93.83;98820.72;5075282;28;20216;-67
2021/03/04 01:38:24;;;;;;;25.00;18.00;;;;;;;6.65;93.97;98813.78;5075170;28;20212;-68
2021/03/04 01:40:50;;;;;;;25.80;16.03;;;;;;;6.66;93.92;98805.78;5075381;28;20215;-67
2021/03/04 01:43:16;;;;;;;28.00;17.40;;;;;;;6.72;93.19;98816.03;5074800;28;20243;-67
2021/03/04 01:45:42;;;;;;;25.90;16.80;;;;;;;6.75;93.76;98812.44;5075029;28;20244;-67
2021/03/04 01:48:09;;;;;;;28.80;17.57;;;;;;;6.77;93.21;98803.56;5073212;28;20716;-67
2021/03/04 01:50:35;;;;;;;25.67;17.07;;;;;;;6.83;93.27;98787.53;5075068;28;20216;-67
2021/03/04 01:53:02;;;;;;;24.63;16.40;;;;;;;6.90;92.97;98788.13;5074980;28;20217;-67
2021/03/04 01:55:29;;;;;;;24.63;17.63;;;;;;;6.94;92.60;98785.28;5074861;28;20217;-72
2021/03/04 01:57:55;;;;;;;25.93;17.67;;;;;;;6.98;92.55;98788.63;5074514;28;20634;-72
2021/03/04 02:00:23;;;;;;;22.60;16.80;;;;;;;7.01;91.45;98791.16;5074374;28;20213;-70
2021/03/04 02:02:49;;;;;;;23.00;16.53;;;;;;;7.05;91.01;98783.06;5074673;28;20220;-70
2021/03/04 02:05:17;;;;;;;24.47;16.73;;;;;;;7.08;90.54;98779.44;5074708;28;20218;-72
2021/03/04 02:07:51;;;;;;;27.63;18.63;;;;;;;7.11;90.73;98785.41;5074246;28;20230;-71
2021/03/04 02:10:26;;;;;;;25.30;17.17;;;;;;;7.13;90.21;98780.91;5074679;28;20236;-71
2021/03/04 02:13:00;;;;;;;25.93;18.57;;;;;;;7.13;90.63;98774.78;5072888;28;20235;-69
2021/03/04 02:15:30;;;;;;;29.63;17.60;;;;;;;7.16;90.26;98772.91;5074616;28;20242;-69
2021/03/04 02:18:00;;;;;;;24.70;16.90;;;;;;;7.17;89.50;98779.88;5074507;28;20215;-69
2021/03/04 02:20:34;;;;;;;23.97;17.00;;;;;;;7.19;88.95;98775.38;5074185;28;20210;-69
2021/03/04 02:23:11;;;;;;;29.60;17.77;;;;;;;7.16;89.12;98770.28;5074196;28;20212;-67
2021/03/04 02:25:44;;;;;;;28.67;18.00;;;;;;;7.14;88.90;98764.22;5074146;28;20206;-65
2021/03/04 02:28:12;;;;;;;25.13;16.70;;;;;;;7.10;88.77;98757.41;5073805;28;20228;-67
2021/03/04 02:30:40;;;;;;;24.60;17.80;;;;;;;7.08;89.18;98759.25;5074257;28;20216;-68
2021/03/04 02:33:10;;;;;;;25.97;16.87;;;;;;;7.02;89.10;98761.31;5073836;28;20702;-71
2021/03/04 02:35:37;;;;;;;26.33;16.90;;;;;;;6.95;89.94;98747.59;5073667;28;20260;-70
2021/03/04 02:38:08;;;;;;;26.43;17.40;;;;;;;6.93;89.88;98746.81;5073434;28;20214;-70
2021/03/04 02:40:36;;;;;;;25.90;17.30;;;;;;;6.90;90.37;98748.72;5073392;28;20232;-70
2021/03/04 02:43:06;;;;;;;29.63;18.37;;;;;;;6.86;90.17;98748.00;5073911;28;20217;-70
2021/03/04 02:45:32;;;;;;;26.73;16.80;;;;;;;6.84;89.49;98749.84;5073547;28;20691;-70
2021/03/04 02:47:59;;;;;;;26.00;17.87;;;;;;;6.79;89.60;98743.91;5073826;28;20238;-70
2021/03/04 02:50:26;;;;;;;25.27;16.13;;;;;;;6.78;90.57;98747.47;5073645;28;20206;-70
2021/03/04 02:52:53;;;;;;;26.67;17.00;;;;;;;6.78;90.46;98736.13;5073720;28;20208;-70
2021/03/04 02:55:20;;;;;;;24.53;16.40;;;;;;;6.77;90.91;98735.25;5073662;28;20217;-70
2021/03/04 02:57:48;;;;;;;24.50;15.93;;;;;;;6.82;90.58;98737.69;5073656;28;20585;-70
2021/03/04 03:00:18;;;;;;;23.43;15.07;;;;;;;6.88;90.53;98740.91;5073666;28;20225;-70
2021/03/04 03:02:46;;;;;;;25.57;15.60;;;;;;;6.95;90.62;98739.69;5073397;28;20209;-70
2021/03/04 03:05:14;;;;;;;27.90;16.27;;;;;;;6.98;90.32;98731.69;5072039;28;20214;-65
2021/03/04 03:07:41;;;;;;;22.33;14.40;;;;;;;7.04;89.57;98723.53;5073267;28;20233;-68
2021/03/04 03:10:10;;;;;;;24.20;15.23;;;;;;;7.07;89.29;98722.50;5073384;28;20213;-69
2021/03/04 03:12:37;;;;;;;21.57;14.47;;;;;;;7.10;88.78;98725.00;5073399;28;20205;-68
2021/03/04 03:15:06;;;;;;;17.87;12.30;;;;;;;7.11;88.17;98718.81;5073430;28;20272;-67
2021/03/04 03:17:33;;;;;;;19.23;12.30;;;;;;;7.09;88.04;98726.78;5073474;28;20233;-70
2021/03/04 03:20:00;;;;;;;17.10;12.60;;;;;;;7.06;87.48;98721.66;5073516;28;20213;-67
2021/03/04 03:22:26;;;;;;;17.53;12.10;;;;;;;7.04;87.93;98722.66;5073256;28;20209;-67
2021/03/04 03:24:52;;;;;;;16.97;11.80;;;;;;;6.99;87.85;98722.88;5073219;28;20230;-66
2021/03/04 03:27:18;;;;;;;17.87;11.47;;;;;;;6.96;88.18;98725.63;5073238;28;20675;-70
2021/03/04 03:29:44;;;;;;;17.33;11.40;;;;;;;6.98;87.63;98715.94;5073127;28;20212;-71
2021/03/04 03:32:11;;;;;;;17.13;11.50;;;;;;;6.94;87.99;98711.72;5070858;28;20224;-70
2021/03/04 03:34:39;;;;;;;17.93;11.67;;;;;;;6.95;87.33;98708.16;5072715;28;20213;-70
2021/03/04 03:37:06;;;;;;;17.10;11.80;;;;;;;6.95;87.80;98705.53;5073059;28;20220;-66
2021/03/04 03:39:33;;;;;;;16.60;11.50;;;;;;;6.96;87.42;98709.03;5072963;28;20212;-69
2021/03/04 03:42:01;;;;;;;23.13;11.83;;;;;;;6.91;87.48;98701.34;5073325;28;20212;-67
2021/03/04 03:44:28;;;;;;;20.63;12.17;;;;;;;6.92;88.17;98703.06;5072985;28;20639;-70
2021/03/04 03:46:56;;;;;;;19.23;11.50;;;;;;;6.93;88.18;98704.75;5072848;28;20215;-69
2021/03/04 03:49:23;;;;;;;18.93;11.40;;;;;;;6.92;87.73;98707.44;5072990;28;20236;-68
2021/03/04 03:51:49;;;;;;;19.23;12.47;;;;;;;6.89;88.69;98720.75;5072911;28;20211;-68
2021/03/04 03:54:17;;;;;;;21.93;13.67;;;;;;;6.84;89.18;98715.69;5072882;28;20300;-67
2021/03/04 03:56:44;;;;;;;22.30;14.03;;;;;;;6.82;89.64;98707.03;5071015;28;20603;-69
2021/03/04 03:59:11;;;;;;;23.07;13.37;;;;;;;6.77;90.45;98706.38;5072642;28;20675;-69
2021/03/04 04:01:38;;;;;;;21.00;13.13;;;;;;;6.75;90.37;98700.34;5072822;28;20211;-66
2021/03/04 04:04:05;;;;;;;19.13;13.27;;;;;;;6.72;90.99;98697.84;5072920;28;20213;-66
2021/03/04 04:06:32;;;;;;;21.37;12.57;;;;;;;6.66;90.81;98687.59;5072912;28;20214;-67
2021/03/04 04:08:59;;;;;;;21.67;13.03;;;;;;;6.57;92.06;98685.41;5072416;28;20237;-66
2021/03/04 04:11:27;;;;;;;20.43;13.17;;;;;;;6.58;91.24;98675.72;5072753;28;20224;-67
2021/03/04 04:13:54;;;;;;;20.53;13.43;;;;;;;6.51;91.26;98685.69;5072565;28;20213;-66
2021/03/04 04:16:20;;;;;;;18.13;12.70;;;;;;;6.50;90.45;98678.72;5072676;28;20218;-67
2021/03/04 04:18:47;;;;;;;18.60;13.47;;;;;;;6.39;90.84;98680.97;5072605;28;20203;-67
2021/03/04 04:21:14;;;;;;;21.57;13.67;;;;;;;6.37;90.98;98672.31;5072832;28;20208;-68
2021/03/04 04:23:41;;;;;;;20.30;12.90;;;;;;;6.33;91.30;98668.09;5070877;28;20670;-72
2021/03/04 04:26:08;;;;;;;21.50;13.37;;;;;;;6.25;91.87;98672.84;5073051;28;20209;-72
2021/03/04 04:28:35;;;;;;;22.07;13.27;;;;;;;6.17;91.32;98674.94;5072680;28;20238;-71
2021/03/04 04:31:01;;;;;;;19.67;12.60;;;;;;;6.09;92.56;98684.91;5072670;28;20211;-72
2021/03/04 04:33:27;;;;;;;21.90;13.30;;;;;;;5.98;92.48;98679.25;5072650;28;20214;-71
2021/03/04 04:35:53;;;;;;;22.03;12.50;;;;;;;5.86;93.23;98674.53;5072269;28;20299;-70
2021/03/04 04:38:19;;;;;;;21.00;13.10;;;;;;;5.75;94.16;98666.22;5072250;28;20209;-70
2021/03/04 04:40:45;;;;;;;22.47;14.03;;;;;;;5.73;94.49;98667.22;5072205;28;20212;-72
2021/03/04 04:43:11;;;;;;;20.07;13.27;;;;;;;5.66;94.43;98677.09;5072493;28;20208;-71
2021/03/04 04:45:39;;;;;;;24.43;14.03;;;;;;;5.71;95.60;98659.41;5075412;28;20212;-70
2021/03/04 04:48:06;;;;;;;25.73;14.50;;;;;;;5.79;95.18;98659.94;5075992;28;20228;-70
2021/03/04 04:50:32;;;;;;;24.27;13.97;;;;;;;5.87;94.59;98654.41;5074589;28;20212;-71
2021/03/04 04:52:58;;;;;;;21.87;15.00;;;;;;;5.90;93.48;98651.63;5076003;28;20205;-69
2021/03/04 04:55:24;;;;;;;25.50;14.60;;;;;;;5.87;93.95;98644.75;5075865;28;20261;-69
2021/03/04 04:57:50;;;;;;;19.57;13.60;;;;;;;5.91;94.14;98651.59;5075933;28;20581;-70
2021/03/04 05:00:18;;;;;;;20.83;13.97;;;;;;;5.94;93.81;98653.22;5076098;28;20213;-70
2021/03/04 05:02:44;;;;;;;22.30;14.30;;;;;;;5.96;93.60;98638.25;5076114;28;20204;-70
2021/03/04 05:05:11;;;;;;;21.47;14.20;;;;;;;5.99;93.18;98640.78;5075932;28;20208;-70
2021/03/04 05:07:37;;;;;;;19.90;13.73;;;;;;;6.03;92.18;98648.44;5075476;28;20237;-72
2021/03/04 05:10:04;;;;;;;23.60;14.70;;;;;;;6.06;92.00;98640.44;5075814;28;20204;-72
2021/03/04 05:12:30;;;;;;;21.77;13.77;;;;;;;6.07;92.25;98641.28;5075688;28;20667;-72
2021/03/04 05:14:56;;;;;;;23.10;13.70;;;;;;;6.02;91.65;98638.88;5073920;28;20251;-70
2021/03/04 05:17:22;;;;;;;21.47;14.03;;;;;;;6.04;91.87;98630.94;5075684;28;20216;-69
2021/03/04 05:19:50;;;;;;;19.40;12.70;;;;;;;6.02;91.27;98633.63;5075175;28;20205;-69
2021/03/04 05:22:16;;;;;;;20.97;13.37;;;;;;;5.97;91.86;98625.09;5075719;28;20220;-69
2021/03/04 05:24:42;;;;;;;18.70;12.30;;;;;;;5.93;92.26;98628.75;5075589;28;20208;-68
2021/03/04 05:27:08;;;;;;;18.13;12.53;;;;;;;5.90;92.39;98630.66;5075545;28;20210;-69
2021/03/04 05:29:34;;;;;;;19.93;12.77;;;;;;;5.83;91.87;98632.72;5075054;28;20285;-68
2021/03/04 05:32:00;;;;;;;19.13;12.53;;;;;;;5.74;91.82;98626.97;5075046;28;20205;-69
2021/03/04 05:34:26;;;;;;;20.17;13.27;;;;;;;5.64;92.17;98626.50;5075422;28;20208;-68
2021/03/04 05:36:53;;;;;;;23.60;14.53;;;;;;;5.54;93.68;98619.91;5075273;28;20691;-68
2021/03/04 05:39:20;;;;;;;22.90;15.13;;;;;;;5.49;94.25;98621.03;5075077;28;20204;-71
2021/03/04 05:41:46;;;;;;;24.63;15.30;;;;;;;5.44;95.22;98623.81;5073223;28;20215;-68
2021/03/04 05:44:14;;;;;;;23.23;15.40;;;;;;;5.43;95.64;98616.88;5075263;28;20220;-69
2021/03/04 05:46:40;;;;;;;23.47;14.40;;;;;;;5.35;96.42;98611.13;5075391;28;20219;-69
2021/03/04 05:49:10;;;;;;;23.03;15.20;;;;;;;5.24;97.50;98615.94;5074643;28;20723;-69
2021/03/04 05:51:37;;;;;;;24.13;16.27;;;;;;;5.13;98.31;98612.88;5074804;28;20216;-69
2021/03/04 05:54:06;;;;;;;27.43;16.77;;;;;;;5.11;99.11;98608.63;5075099;28;20208;-69
2021/03/04 05:56:35;;;;;;;21.70;15.57;;;;;;;5.06;99.39;98614.03;5073987;28;20211;-69
2021/03/04 05:59:01;;;;;;;27.13;16.50;;;;;;;5.10;100.00;98607.78;5074873;28;20209;-69
2021/03/04 06:01:29;;;;;;;25.53;16.53;;;;;;;5.07;100.00;98607.88;5075071;28;20208;-71
2021/03/04 06:03:55;;;;;;;23.87;16.33;;;;;;;5.03;100.00;98595.84;5074562;28;20207;-71
2021/03/04 06:06:21;;;;;;;26.87;15.83;;;;;;;5.08;100.00;98606.97;5074078;28;20211;-70
2021/03/04 06:08:47;;;;;;;23.20;15.67;;;;;;;5.08;100.00;98599.09;5073064;28;20235;-70
2021/03/04 06:11:14;;;;;;;25.63;16.40;;;;;;;5.12;100.00;98599.88;5074562;28;20210;-69
2021/03/04 06:13:40;;;;;;;20.53;15.60;;;;;;;5.10;100.00;98605.16;5074561;28;20212;-69
2021/03/04 06:16:07;;;;;;;23.87;16.07;;;;;;;5.13;100.00;98604.19;5074644;28;20284;-69
2021/03/04 06:18:41;;;;;;;24.17;14.57;;;;;;;5.05;100.00;98598.38;5074169;28;20797;-69
2021/03/04 06:21:21;;;;;;;24.00;15.80;;;;;;;5.00;100.00;98601.19;5074538;28;20204;-69
2021/03/04 06:23:48;;;;;;;25.03;16.40;;;;;;;5.07;100.00;98596.56;5074329;28;20219;-69
2021/03/04 06:26:39;;;;;;;24.33;15.47;;;;;;;5.17;100.00;98609.22;5074009;28;20207;-69
2021/03/04 06:29:12;;;;;;;25.33;16.23;;;;;;;5.31;99.99;98604.28;5058775;28;20235;-69
2021/03/04 06:31:39;;;;;;;26.90;16.00;;;;;;;5.37;100.00;98597.94;5073850;28;20207;-72
2021/03/04 06:34:15;;;;;;;22.43;15.83;;;;;;;5.47;98.76;98602.75;5072358;28;20204;-71
2021/03/04 06:36:52;;;;;;;23.80;14.63;;;;;;;5.47;99.39;98592.25;5074126;28;20219;-71
2021/03/04 06:39:19;;;;;;;22.80;15.03;;;;;;;5.49;99.91;98600.91;5073883;28;20208;-71
2021/03/04 06:41:45;;;;;;;23.10;15.23;;;;;;;5.54;99.57;98598.94;5073915;28;20211;-71
2021/03/04 06:44:12;;;;;;;24.00;15.17;;;;;;;5.49;99.33;98598.28;5073921;28;20214;-71
2021/03/04 06:46:44;;;;;;;22.13;14.53;;;;;;;5.53;99.39;98599.88;5073967;28;20211;-67
2021/03/04 06:49:10;;;;;;;22.53;15.07;;;;;;;5.48;99.43;98593.97;5073800;28;20246;-67
2021/03/04 06:51:42;;;;;;;23.50;15.47;;;;;;;5.59;99.30;98591.75;5073709;28;20211;-68
2021/03/04 06:54:08;;;;;;;22.60;14.70;;;;;;;5.62;99.15;98586.34;5073475;28;20212;-69
2021/03/04 06:56:34;;;;;;;22.77;16.03;;;;;;;5.67;98.69;98588.81;5073714;28;20204;-68
2021/03/04 06:59:02;;;;;;;24.90;16.17;;;;;;;5.76;98.65;98589.28;5071809;28;20218;-68
2021/03/04 07:01:29;;;;;;;21.17;14.43;;;;;;;5.83;98.10;98590.75;5073717;28;20205;-68
2021/03/04 07:03:56;;;;;;;22.60;14.47;;;;;;;5.92;98.31;98595.56;5073298;28;20212;-67
2021/03/04 07:06:23;;;;;;;24.77;16.03;;;;;;;5.97;97.00;98598.00;5073526;28;20208;-67
2021/03/04 07:08:51;;;;;;;25.40;16.57;;;;;;;6.12;96.36;98597.34;5073315;28;20239;-67
2021/03/04 07:11:18;;;;;;;21.60;15.53;;;;;;;6.18;95.99;98604.94;5073208;28;20266;-67
2021/03/04 07:13:44;;;;;;;23.70;16.57;;;;;;;6.25;95.94;98594.09;5072967;28;20212;-67
2021/03/04 07:16:16;;;;;;;23.13;16.93;;;;;;;6.28;96.27;98587.88;5073467;28;20232;-67
2021/03/04 07:18:44;;;;;;;24.27;15.17;;;;;;;6.32;96.94;98590.28;5073373;28;20212;-67
2021/03/04 07:21:13;;;;;;;22.43;14.17;;;;;;;6.41;96.76;98589.84;5073267;28;20590;-67
2021/03/04 07:23:41;;;;;;;21.67;14.67;;;;;;;6.50;96.43;98589.44;5072869;28;20664;-67
2021/03/04 07:26:08;;;;;;;23.03;16.50;;;;;;;6.77;96.04;98597.84;5071237;28;20205;-68
2021/03/04 07:28:36;;;;;;;22.47;15.47;;;;;;;6.92;94.57;98592.72;5072841;28;20713;-68
2021/03/04 07:31:03;;;;;;;22.23;15.10;;;;;;;7.15;92.80;98589.81;5073104;28;20627;-68
2021/03/04 07:33:31;;;;;;;22.87;14.40;;;;;;;7.29;91.43;98585.59;5073151;28;20258;-68
2021/03/04 07:36:01;;;;;;;22.20;14.07;;;;;;;7.39;90.23;98588.63;5072966;28;20214;-68
2021/03/04 07:38:29;;;;;;;19.20;14.60;;;;;;;7.43;89.84;98582.28;5073155;28;20289;-68
2021/03/04 07:41:07;;;;;;;19.00;12.83;;;;;;;7.44;89.08;98581.34;5072825;28;20209;-68
2021/03/04 07:43:46;;;;;;;21.43;14.20;;;;;;;7.50;86.41;98583.69;5073146;28;20209;-67
2021/03/04 07:46:25;;;;;;;21.03;14.70;;;;;;;7.48;87.85;98580.28;5072976;28;20630;-69
2021/03/04 07:48:52;;;;;;;27.27;14.87;;;;;;;7.47;89.57;98582.06;5072852;28;20233;-68
2021/03/04 07:51:18;;;;;;;21.73;14.70;;;;;;;7.46;90.07;98568.97;5071167;28;20210;-66
2021/03/04 07:53:46;;;;;;;21.87;15.00;;;;;;;7.52;89.97;98566.03;5052839;28;20217;-71
2021/03/04 07:56:25;;;;;;;21.93;14.37;;;;;;;7.77;88.51;98563.88;5049411;28;20291;-71
2021/03/04 07:58:51;;;;;;;20.13;13.30;;;;;;;8.03;85.19;98574.75;5051904;28;20665;-72
2021/03/04 08:01:17;;;;;;;18.07;12.93;;;;;;;8.25;84.97;98569.25;5051491;28;20215;-72
2021/03/04 08:03:45;;;;;;;19.40;13.77;;;;;;;8.35;84.70;98562.56;5077195;28;20233;-71
2021/03/04 08:06:12;;;;;;;20.03;14.50;;;;;;;8.31;84.06;98563.66;5092429;28;20212;-71
2021/03/04 08:08:39;;;;;;;23.77;15.53;;;;;;;8.30;84.46;98559.31;5092587;28;20241;-70
2021/03/04 08:11:05;;;;;;;21.03;14.10;;;;;;;8.21;83.45;98552.75;5092678;28;20346;-70
2021/03/04 08:13:32;;;;;;;20.77;14.20;;;;;;;8.06;84.42;98555.31;5092656;28;20697;-71
2021/03/04 08:15:58;;;;;;;21.03;13.67;;;;;;;7.97;86.16;98550.53;5092576;28;20232;-70
2021/03/04 08:18:26;;;;;;;21.83;13.17;;;;;;;8.02;84.60;98559.06;5090869;28;20748;-70
2021/03/04 08:20:53;;;;;;;20.10;13.83;;;;;;;8.08;84.20;98556.09;5096578;28;20213;-71
2021/03/04 08:23:21;;;;;;;21.90;12.57;;;;;;;8.19;83.56;98562.53;5096854;28;20203;-71
2021/03/04 08:25:48;;;;;;;22.63;13.77;;;;;;;8.27;83.02;98548.97;5096841;28;20214;-70
2021/03/04 08:28:21;;;;;;;20.50;12.97;;;;;;;8.43;82.74;98544.56;5096505;28;20229;-72
2021/03/04 08:30:47;;;;;;;19.17;13.23;;;;;;;8.59;81.18;98537.53;5096326;28;21843;-71
2021/03/04 08:33:13;;;;;;;17.97;12.20;;;;;;;8.78;79.71;98535.56;5096325;28;20217;-72
2021/03/04 08:35:43;;;;;;;17.83;12.40;;;;;;;8.98;78.24;98532.66;5096806;28;20213;-72
2021/03/04 08:38:11;;;;;;;18.30;12.13;;;;;;;9.16;77.73;98527.22;5096222;28;20217;-72
2021/03/04 08:40:40;;;;;;;20.60;12.33;;;;;;;9.36;76.66;98512.88;5056393;28;20215;-72
2021/03/04 08:43:10;;;;;;;19.00;11.93;;;;;;;9.64;72.73;98513.81;5054436;28;20269;-71
2021/03/04 08:45:37;;;;;;;18.83;11.80;;;;;;;9.70;72.24;98512.56;5056323;28;20261;-72
2021/03/04 08:48:07;;;;;;;15.83;10.87;;;;;;;9.74;71.18;98514.09;5056088;28;20253;-72
2021/03/04 08:50:39;;;;;;;18.00;11.60;;;;;;;9.81;71.09;98510.16;5056160;28;20244;-70
2021/03/04 08:53:13;;;;;;;18.33;10.47;;;;;;;9.97;69.45;98500.38;5055951;28;20215;-72
2021/03/04 08:55:47;;;;;;;16.53;10.03;;;;;;;10.18;68.56;98504.34;5056050;28;20257;-70
2021/03/04 08:58:13;;;;;;;15.33;9.87;;;;;;;10.37;66.94;98497.84;5055987;28;20251;-70
2021/03/04 09:00:39;;;;;;;19.20;10.67;;;;;;;10.66;66.25;98496.88;5055890;28;20262;-71
2021/03/04 09:03:10;;;;;;;16.17;10.77;;;;;;;10.95;64.13;98502.91;5055674;28;20225;-71
2021/03/04 09:05:36;;;;;;;18.03;10.60;;;;;;;11.35;62.89;98496.69;5055829;28;20219;-70
2021/03/04 09:08:10;;;;;;;15.47;10.20;;;;;;;11.88;61.02;98496.59;5055420;28;20238;-70
2021/03/04 09:10:50;;;;;;;14.50;8.80;;;;;;;12.20;57.20;98488.13;5054084;28;20258;-71
2021/03/04 09:13:21;;;;;;;12.47;8.23;;;;;;;12.34;56.59;98479.22;5055707;28;20223;-71
2021/03/04 09:15:50;;;;;;;14.57;8.47;;;;;;;12.33;56.64;98477.50;5055818;28;20242;-71
2021/03/04 09:18:19;;;;;;;11.40;7.77;;;;;;;12.27;57.29;98478.78;5055252;28;20682;-71
2021/03/04 09:20:45;;;;;;;12.23;7.80;;;;;;;12.14;56.31;98477.09;5055235;28;20212;-71
2021/03/04 09:23:12;;;;;;;10.43;7.77;;;;;;;12.04;56.71;98476.06;5055197;28;20216;-71
2021/03/04 09:25:38;;;;;;;12.37;7.30;;;;;;;11.93;56.88;98471.47;5055514;28;20268;-71
2021/03/04 09:28:08;;;;;;;11.27;6.50;;;;;;;11.93;55.52;98465.38;5055299;28;20233;-71
2021/03/04 09:30:34;;;;;;;11.37;5.80;;;;;;;11.98;54.35;98465.91;5054413;28;20212;-71
2021/03/04 09:33:00;;;;;;;11.00;5.23;;;;;;;11.99;53.10;98462.28;5055207;28;20211;-71
2021/03/04 09:35:27;;;;;;;9.17;5.30;;;;;;;12.04;53.22;98460.16;5053482;28;20594;-71
2021/03/04 09:37:53;;;;;;;8.67;5.40;;;;;;;12.09;52.69;98458.03;5055334;28;20619;-71
2021/03/04 09:40:28;;;;;;;9.20;5.47;;;;;;;12.12;53.12;98450.72;5072343;28;20672;-71
2021/03/04 09:42:54;;;;;;;9.80;5.00;;;;;;;12.11;52.46;98446.38;5075025;28;20214;-71
2021/03/04 09:45:21;;;;;;;11.10;5.27;;;;;;;12.20;52.69;98445.72;5075089;28;20208;-71
2021/03/04 09:47:49;;;;;;;10.50;5.50;;;;;;;12.22;52.89;98446.47;5075021;28;20215;-71
2021/03/04 09:50:20;;;;;;;11.97;5.87;;;;;;;12.25;53.52;98445.41;5075069;28;20217;-71
2021/03/04 09:52:58;;;;;;;9.37;5.30;;;;;;;12.31;53.61;98442.31;5075182;28;20203;-71
2021/03/04 09:55:24;;;;;;;10.77;5.37;;;;;;;12.35;52.95;98443.81;5075197;28;20648;-71
2021/03/04 09:57:50;;;;;;;11.20;6.07;;;;;;;12.46;52.13;98436.75;5074951;28;20215;-71
2021/03/04 10:00:23;;;;;;;12.07;5.60;;;;;;;12.53;52.50;98437.19;5074887;28;20205;-71
2021/03/04 10:02:50;;;;;;;8.23;5.47;;;;;;;12.54;52.00;98433.56;5073042;28;20212;-71
2021/03/04 10:05:18;;;;;;;13.23;7.10;;;;;;;12.59;52.52;98434.09;5074799;28;20207;-71
2021/03/04 10:07:45;;;;;;;13.43;7.20;;;;;;;12.65;53.94;98426.50;5074786;28;20599;-71
2021/03/04 10:10:13;;;;;;;14.83;7.67;;;;;;;12.69;53.12;98427.13;5074351;28;20228;-71
2021/03/04 10:12:53;;;;;;;14.63;7.23;;;;;;;12.73;53.58;98423.31;5074537;28;20210;-71
2021/03/04 10:15:28;;;;;;;13.17;7.53;;;;;;;12.81;54.50;98416.50;5074725;28;20318;-71
2021/03/04 10:17:54;;;;;;;14.27;7.80;;;;;;;12.91;53.73;98416.66;5074426;28;20211;-71
2021/03/04 10:20:21;;;;;;;13.03;7.90;;;;;;;12.93;53.47;98420.88;5074148;28;20211;-73
2021/03/04 10:22:48;;;;;;;11.47;7.93;;;;;;;12.92;53.31;98419.22;5074092;28;20204;-73
2021/03/04 10:25:14;;;;;;;12.43;7.67;;;;;;;12.98;54.18;98417.91;5074474;28;20207;-70
2021/03/04 10:27:40;;;;;;;11.80;7.33;;;;;;;13.31;53.20;98421.56;5072322;28;20693;-70
2021/03/04 10:30:09;;;;;;;15.63;8.30;;;;;;;13.37;51.84;98409.59;5074196;28;20263;-70
2021/03/04 10:32:36;;;;;;;20.63;8.10;;;;;;;13.33;51.93;98409.00;5074118;28;20225;-72
2021/03/04 10:35:05;;;;;;;13.97;8.53;;;;;;;13.39;52.71;98402.41;5073924;28;20210;-71
2021/03/04 10:37:31;;;;;;;16.83;9.10;;;;;;;13.39;54.25;98408.53;5073722;28;20208;-71
2021/03/04 10:39:57;;;;;;;16.40;10.10;;;;;;;13.42;55.92;98403.00;5073695;28;20258;-70
2021/03/04 10:42:22;;;;;;;20.73;10.23;;;;;;;13.56;55.77;98402.78;5073153;28;20217;-70
2021/03/04 10:44:48;;;;;;;20.57;10.90;;;;;;;13.64;55.54;98396.88;5073677;28;20215;-70
2021/03/04 10:47:14;;;;;;;20.60;11.30;;;;;;;13.69;55.26;98392.91;5073649;28;20266;-72
2021/03/04 10:49:41;;;;;;;15.50;9.97;;;;;;;13.78;55.28;98394.88;5073722;28;20233;-73
2021/03/04 10:52:07;;;;;;;17.97;10.67;;;;;;;13.79;56.27;98383.25;5073866;28;20204;-72
2021/03/04 10:54:33;;;;;;;20.30;11.17;;;;;;;13.93;54.40;98392.81;5072225;28;20561;-70
2021/03/04 10:56:59;;;;;;;18.93;10.40;;;;;;;13.99;54.92;98387.03;5073896;28;20215;-71
2021/03/04 10:59:25;;;;;;;17.13;11.10;;;;;;;14.06;54.40;98396.19;5073272;28;20252;-71
2021/03/04 11:01:51;;;;;;;18.80;10.60;;;;;;;14.10;53.97;98387.84;5073377;28;20207;-72
2021/03/04 11:04:17;;;;;;;20.17;11.30;;;;;;;14.33;53.44;98392.22;5073459;28;20294;-71
2021/03/04 11:06:44;;;;;;;20.20;11.20;;;;;;;14.29;53.49;98393.44;5070140;28;20581;-71
2021/03/04 11:09:10;;;;;;;23.13;11.97;;;;;;;14.21;53.17;98389.69;5072225;28;20243;-68
2021/03/04 11:11:36;;;;;;;20.23;11.73;;;;;;;14.27;53.59;98387.41;5072287;28;20312;-69
2021/03/04 11:14:02;;;;;;;21.47;10.97;;;;;;;14.37;53.30;98387.50;5054694;28;20664;-72
2021/03/04 11:16:28;;;;;;;25.10;11.67;;;;;;;14.34;53.35;98377.97;5067388;28;20575;-71
2021/03/04 11:18:54;;;;;;;20.03;11.67;;;;;;;14.35;54.11;98376.16;5072804;28;20222;-71
2021/03/04 11:21:20;;;;;;;21.87;11.37;;;;;;;14.50;53.44;98377.56;5070304;28;20299;-71
2021/03/04 11:23:47;;;;;;;23.40;12.13;;;;;;;14.62;52.44;98371.25;5072427;28;20712;-71
2021/03/04 11:26:13;;;;;;;18.20;9.57;;;;;;;14.63;50.44;98367.63;5072010;28;20210;-71